Comanche, Texas
Current Conditions -  °F | °C
As of 9:55 PM on Sunday 21 Dec 2014 (Local Time) from KMKN Reporting Station
Clear Clear  
Wind Chill: 50°   Ceiling: Unl
Heat Index: 50°   Visibility: 10mi
Dew Point: 48°   Wind: 12mph
Humidity: 94%   Direction: 190°S
Pressure: 29.76"   Gusts: 18mph
Location:  31.9°N, 98.6°W
Report Text: KMKN 220355Z AUTO 19010G16KT 10SM CLR 10/09 A2976 RMK AO2 T01000091
Loading
Personal Weather Stations






























Interactive Weather Map New forecast layout! Learn more

10-Day Weather Forecast

Advertisements
Track Severe Weather on mobile